Home   Weather   Latvia   Liepāja   Past weeks
Flag for Latvia

Past Weather in Liepāja, Latvia — Yesterday and Last 2 Weeks

Currently: 50 °F. Sunny. (Weather station: Liepaja International Airport, Latvia). See more current weather

Past Weather in Liepāja — Graph

°F

Liepāja Temperature Yesterday

Maximum temperature yesterday: 46 °F (at 4:20 pm)
Minimum temperature yesterday: 41 °F (at 5:50 am)
Average temperature yesterday: 44 °F

High & Low Weather Summary for the Past Weeks

 TemperatureHumidityPressure
High55 °F (Mar 1, 3:20 pm)100% (Feb 20, 7:20 am)30.51 "Hg (Feb 20, 7:20 am)
Low27 °F (Feb 18, 8:20 am)44% (Mar 3, 3:50 pm)29.24 "Hg (Feb 23, 3:50 am)
Average39 °F88%29.92 "Hg
* Reported Feb 17 4:20 pm — Mar 3 4:20 pm, Liepāja. Weather by CustomWeather, © 2024

Note: Actual official high and low records may vary slightly from our data, if they occured in-between our weather recording intervals... More about our weather records

Liepāja Weather History for the Previous 24 Hours

Scroll right to see more
 ConditionsComfort  
Time TempWeatherWind HumidityBarometerVisibility
4:20 pm
Sun, Mar 3
52 °FSunny.16 mph47%29.98 "Hg10 mi
3:50 pm52 °FSunny.14 mph44%30.01 "Hg10 mi
3:20 pm52 °FSunny.15 mph50%30.01 "Hg10 mi
2:50 pm52 °FSunny.13 mph50%30.01 "Hg10 mi
2:20 pm52 °FSunny.16 mph47%30.01 "Hg10 mi
1:50 pm52 °FSunny.15 mph50%30.01 "Hg10 mi
1:20 pm52 °FSunny.15 mph50%30.01 "Hg10 mi
12:50 pm50 °FPassing clouds.14 mph54%30.01 "HgN/A
12:20 pm48 °FPassing clouds.13 mph58%30.01 "HgN/A
11:50 am46 °FSunny.14 mph57%30.01 "Hg10 mi
11:20 am45 °FSunny.14 mph61%30.01 "Hg10 mi
10:50 am45 °FSunny.14 mph66%30.01 "Hg10 mi
10:20 am43 °FSunny.13 mph71%30.01 "Hg10 mi
9:50 am41 °FSunny.12 mph76%30.04 "Hg10 mi
9:20 am41 °FSunny.9 mph76%30.04 "Hg10 mi
8:50 am39 °FSunny.9 mph81%30.04 "Hg10 mi
8:20 am37 °FClear.9 mph87%30.04 "Hg10 mi
7:50 am36 °FClear.7 mph87%30.01 "Hg10 mi
7:20 am36 °FClear.9 mph87%30.01 "Hg10 mi
6:50 am34 °FClear.8 mph93%30.01 "Hg10 mi
6:20 am36 °FClear.8 mph87%30.01 "Hg10 mi
5:50 am37 °FClear.9 mph81%30.01 "Hg10 mi
5:20 am37 °FClear.9 mph81%30.01 "Hg10 mi
4:50 am37 °FClear.8 mph81%30.01 "Hg10 mi
4:20 am37 °FClear.9 mph81%30.01 "Hg10 mi
3:50 am39 °FClear.8 mph75%30.01 "Hg10 mi
3:20 am39 °FClear.8 mph75%30.01 "Hg10 mi
2:50 am39 °FClear.7 mph81%30.01 "Hg10 mi
2:20 am41 °FClear.7 mph76%30.01 "Hg10 mi
1:50 am41 °FClear.7 mph76%30.01 "Hg10 mi
1:20 am41 °FClear.8 mph76%30.01 "Hg10 mi
12:50 am41 °FClear.7 mph76%30.01 "Hg10 mi
12:20 am43 °FClear.7 mph71%30.01 "Hg10 mi
11:50 pm
Sat, Mar 2
43 °FClear.8 mph76%30.01 "Hg10 mi
11:20 pm45 °FClear.9 mph71%30.04 "Hg10 mi
10:50 pm45 °FClear.8 mph71%30.04 "Hg10 mi
10:20 pm45 °FClear.9 mph76%30.04 "Hg10 mi
9:50 pm45 °FClear.10 mph76%30.04 "Hg10 mi
9:20 pm45 °FClear.9 mph76%30.01 "Hg10 mi
8:50 pm45 °FClear.8 mph76%30.01 "Hg10 mi
8:20 pm45 °FClear.10 mph76%30.01 "Hg10 mi
7:50 pm45 °FClear.9 mph76%30.01 "Hg10 mi
7:20 pm45 °FClear.9 mph76%30.01 "Hg10 mi
6:50 pm46 °FPassing clouds.10 mph71%30.01 "HgN/A
6:20 pm46 °FSunny.10 mph76%30.01 "Hg10 mi
Weather by CustomWeather, © 2024

See weather overview